Flight Track Log - Related Links

Times and Time Zones

All times are in EDT time to prevent confusion due to time zone crossing. See the SKW6528 flight status page for this flight to view local times or setup timezone preferences in your user account.

Time Position Orientation Groundspeed Altitude Reporting Facility
EDT Latitude Longitude Course Direction KTS MPH feet Rate Location/Type
Thu 06:43:55 PM 33.9339 -118.4389 90° East 182 209 1,400  Level Los Angeles Center
Thu 06:44:57 PM 33.9019 -118.4958 236° Southwest 225 259 2,800 1,548 Climbing Los Angeles Center
Thu 06:45:59 PM 33.8172 -118.5242 196° South 268 308 4,600 1,728 Climbing Los Angeles Center
Thu 06:46:00 PM 33.6829 -118.5143 101° East  Level FlightAware Approximate
Thu 06:47:00 PM 33.6491 -118.3727 116° Southeast  Level FlightAware Approximate
Thu 06:47:02 PM 33.7397 -118.5225 179° South 281 323 6,400  Level Los Angeles Center
Thu 06:48:00 PM 33.6333 -118.2288 90° East  Level FlightAware Approximate
Thu 06:48:04 PM 33.6825 -118.4681 142° Southeast 290 334 9,400  Level Los Angeles Center
Thu 06:49:00 PM 33.6333 -118.0805 90° East  Level FlightAware Approximate
Thu 06:49:06 PM 33.6492 -118.3581 110° East 299 344 11,600  Level Los Angeles Center
Thu 06:50:08 PM 33.6433 -118.2486 94° East 331 381 12,000 629 Climbing Los Angeles Center
Thu 06:51:10 PM 33.6444 -118.1386 89° East 336 387 12,900 1,403 Climbing Los Angeles Center
Thu 06:52:12 PM 33.6444 -118.0236 90° East 346 398 14,900 2,323 Climbing Los Angeles Center
Thu 06:53:14 PM 33.6447 -117.8789 90° East 361 415 17,700 2,419 Climbing Los Angeles Center
Thu 06:54:16 PM 33.6447 -117.7578 90° East 365 420 19,900 1,887 Climbing Los Angeles Center
Thu 06:55:18 PM 33.6444 -117.6328 90° East 372 428 21,600 1,694 Climbing Los Angeles Center
Thu 06:56:20 PM 33.6450 -117.5028 90° East 386 444 23,400 1,728 Climbing Los Angeles Center
Thu 06:57:23 PM 33.6431 -117.3714 91° East 393 452 25,200 1,584 Climbing Los Angeles Center
Thu 06:58:25 PM 33.6425 -117.2367 90° East 401 461 26,700 1,597 Climbing Los Angeles Center
Thu 06:59:27 PM 33.6411 -117.0706 91° East 413 475 28,500 1,403 Climbing Los Angeles Center
Thu 07:00:29 PM 33.6378 -116.9289 92° East 424 488 29,600 1,016 Climbing Los Angeles Center
Thu 07:01:31 PM 33.6361 -116.7753 91° East 437 503 30,600 968 Climbing Los Angeles Center
Thu 07:02:33 PM 33.6353 -116.6225 90° East 453 521 31,600 1,016 Climbing Los Angeles Center
Thu 07:03:35 PM 33.6328 -116.4708 91° East 453 521 32,700 1,016 Climbing Los Angeles Center
Thu 07:04:37 PM 33.6300 -116.3158 91° East 460 529 33,700 968 Climbing Los Angeles Center
Thu 07:05:39 PM 33.6281 -116.1600 91° East 466 536 34,700 619 Climbing Los Angeles Center
Thu 07:06:43 PM 33.6244 -116.0036 92° East 469 540 35,000 132 Climbing Los Angeles Center
Thu 07:07:55 PM 33.6208 -115.8106 91° East 479 551 35,000  Level Los Angeles Center
Thu 07:08:58 PM 33.6164 -115.6147 92° East 487 560 35,000  Level Los Angeles Center
Thu 07:10:00 PM 33.6125 -115.4522 92° East 486 559 35,000  Level Los Angeles Center
Thu 07:11:02 PM 33.6081 -115.2942 92° East 477 549 35,000  Level Los Angeles Center
Thu 07:12:04 PM 33.6047 -115.1350 91° East 478 550 35,000  Level Los Angeles Center
Thu 07:13:06 PM 33.6017 -114.9744 91° East 480 552 35,000 -48 Level Los Angeles Center
Thu 07:14:09 PM 33.5936 -114.7803 93° East 485 558 34,900 -1,200 Descending Los Angeles Center
Thu 07:15:11 PM 33.5650 -114.6158 102° East 509 586 32,500 -2,400 Descending Los Angeles Center
Thu 07:16:09 PM 33.5381 -114.4564 101° East 508 585 30,100 -2,471 Descending Albuquerque Center
Thu 07:17:10 PM 33.5067 -114.2928 103° East 506 582 27,600 -2,439 Descending Albuquerque Center
Thu 07:18:12 PM 33.4775 -114.1425 103° East 475 547 25,100 -1,366 Descending Albuquerque Center
Thu 07:19:13 PM 33.4481 -114.0047 104° East 439 505 24,800 -683 Descending Albuquerque Center
Thu 07:20:15 PM 33.4206 -113.8717 104° East 418 481 23,700 -1,024 Descending Albuquerque Center
Thu 07:21:16 PM 33.3956 -113.7356 102° East 418 481 22,700 -1,073 Descending Albuquerque Center
Thu 07:22:18 PM 33.3686 -113.6067 104° East 409 471 21,500 -1,512 Descending Albuquerque Center
Thu 07:23:19 PM 33.3364 -113.4553 104° East 399 459 19,600 -1,610 Descending Albuquerque Center
Thu 07:24:21 PM 33.3108 -113.3322 104° East 392 451 18,200 -1,268 Descending Albuquerque Center
Thu 07:25:22 PM 33.2872 -113.2153 104° East 380 437 17,000 -585 Descending Albuquerque Center
Thu 07:26:24 PM 33.2753 -113.1011 97° East 362 417 17,000 -146 Level Albuquerque Center
Thu 07:27:25 PM 33.2764 -112.9900 89° East 343 395 16,700 -1,220 Descending Albuquerque Center
Thu 07:28:27 PM 33.2800 -112.8808 88° East 333 383 14,500 -2,146 Descending Albuquerque Center
Thu 07:29:28 PM 33.2942 -112.7831 80° East 307 353 12,300 -2,146 Descending Albuquerque Center
Thu 07:30:30 PM 33.3272 -112.6947 66° East 292 336 10,100 -1,659 Descending Albuquerque Center
Thu 07:31:31 PM 33.3572 -112.6172 65° Northeast 267 307 8,900 -1,024 Descending Albuquerque Center
Thu 07:32:33 PM 33.3906 -112.5311 65° Northeast 247 284 8,000 -732 Descending Albuquerque Center
Thu 07:33:34 PM 33.4158 -112.4636 66° East 225 259 7,400 -829 Descending Albuquerque Center
Thu 07:34:36 PM 33.4292 -112.3906 78° East 228 262 6,300 -732 Descending Albuquerque Center
Thu 07:35:37 PM 33.4289 -112.3172 90° East 222 255 5,900 -787 Descending Albuquerque Center
Thu 07:36:38 PM 33.4286 -112.2431 90° East 224 258 4,700 -1,073 Descending Albuquerque Center
Thu 07:37:40 PM 33.4286 -112.1764 90° East 204 235 3,700 -1,073 Descending Albuquerque Center
Thu 07:38:41 PM 33.4300 -112.1239 88° East 165 190 2,500 -1,180 Descending Albuquerque Center

Login

Don't have an account? Register now (free) for customized features, flight alerts, and more!